createdAt,value
2023-04-23T00:00:25.812Z,10.30
2023-04-23T00:02:54.538Z,10.04
2023-04-23T00:05:23.452Z,10.18
2023-04-23T00:07:50.551Z,10.26
2023-04-23T00:10:18.387Z,10.16
2023-04-23T00:12:45.925Z,10.19
2023-04-23T00:15:14.239Z,10.27
2023-04-23T00:17:41.223Z,10.23
2023-04-23T00:20:09.362Z,10.12
2023-04-23T00:22:36.374Z,10.12
2023-04-23T00:25:03.571Z,10.35
2023-04-23T00:27:30.571Z,10.27
2023-04-23T00:29:57.551Z,10.37
2023-04-23T00:32:24.728Z,10.22
2023-04-23T00:34:51.901Z,10.21
2023-04-23T00:37:18.733Z,10.16
2023-04-23T00:39:45.859Z,10.19
2023-04-23T00:42:12.826Z,10.20
2023-04-23T00:44:41.060Z,10.15
2023-04-23T00:47:08.317Z,10.04
2023-04-23T00:49:36.256Z,10.07
2023-04-23T00:52:06.327Z,10.00
2023-04-23T00:54:33.257Z,10.02
2023-04-23T00:57:00.472Z,10.09
2023-04-23T00:59:28.305Z,10.18
2023-04-23T01:01:56.469Z,10.10
2023-04-23T01:04:24.797Z,10.17
2023-04-23T01:06:51.945Z,10.26
2023-04-23T01:09:18.965Z,10.30
2023-04-23T01:11:47.568Z,10.19
2023-04-23T01:14:14.588Z,10.13
2023-04-23T01:16:41.657Z,10.11
2023-04-23T01:19:10.364Z,9.98
2023-04-23T01:21:40.867Z,10.02
2023-04-23T01:24:09.649Z,9.96
2023-04-23T01:26:36.521Z,9.91
2023-04-23T01:29:03.812Z,9.85
2023-04-23T01:31:31.365Z,9.74
2023-04-23T01:34:00.483Z,9.80
2023-04-23T01:36:27.512Z,9.76
2023-04-23T01:38:54.492Z,9.80
2023-04-23T01:41:22.952Z,9.66
2023-04-23T01:43:50.000Z,9.61
2023-04-23T01:46:17.126Z,9.70
2023-04-23T01:48:44.153Z,9.62
2023-04-23T01:51:11.224Z,9.66
2023-04-23T01:53:38.171Z,9.45
2023-04-23T01:56:05.746Z,9.43
2023-04-23T01:58:32.757Z,9.34
2023-04-23T02:00:59.820Z,9.22
2023-04-23T02:03:27.277Z,9.37
2023-04-23T02:05:55.749Z,9.35
2023-04-23T02:08:23.288Z,9.36
2023-04-23T02:10:50.304Z,9.31
2023-04-23T02:13:17.573Z,9.32
2023-04-23T02:15:45.098Z,9.31
2023-04-23T02:18:12.347Z,9.22
2023-04-23T02:20:41.203Z,9.15
2023-04-23T02:23:09.131Z,9.21
2023-04-23T02:25:38.722Z,9.13
2023-04-23T02:28:07.929Z,9.00
2023-04-23T02:30:35.680Z,9.00
2023-04-23T02:33:03.916Z,8.85
2023-04-23T02:35:31.665Z,8.91
2023-04-23T02:37:58.681Z,8.78
2023-04-23T02:40:25.832Z,8.86
2023-04-23T02:42:52.977Z,8.84
2023-04-23T02:45:20.066Z,8.93
2023-04-23T02:47:47.326Z,8.88
2023-04-23T02:50:14.336Z,8.83
2023-04-23T02:52:41.621Z,8.57
2023-04-23T02:55:09.688Z,8.76
2023-04-23T02:57:40.652Z,8.96
2023-04-23T03:00:08.657Z,8.76
2023-04-23T03:02:35.930Z,8.81
2023-04-23T03:05:03.035Z,8.80
2023-04-23T03:07:30.249Z,8.90
2023-04-23T03:09:57.204Z,8.84
2023-04-23T03:12:24.314Z,8.72
2023-04-23T03:14:51.394Z,8.86
2023-04-23T03:17:18.340Z,8.86
2023-04-23T03:19:45.501Z,8.88
2023-04-23T03:22:12.530Z,8.81
2023-04-23T03:24:39.790Z,8.95
2023-04-23T03:27:06.956Z,8.98
2023-04-23T03:29:34.179Z,8.90
2023-04-23T03:32:01.152Z,8.89
2023-04-23T03:34:31.320Z,8.99
2023-04-23T03:36:58.625Z,8.96
2023-04-23T03:39:25.531Z,8.95
2023-04-23T03:41:52.497Z,8.97
2023-04-23T03:44:23.305Z,8.81
2023-04-23T03:46:50.423Z,8.72
2023-04-23T03:49:17.426Z,8.71
2023-04-23T03:51:44.593Z,8.69
2023-04-23T03:54:11.727Z,8.70
2023-04-23T03:56:38.730Z,8.84
2023-04-23T03:59:05.890Z,8.71
2023-04-23T04:01:33.317Z,8.76
2023-04-23T04:04:00.431Z,8.79
2023-04-23T04:06:27.464Z,8.86
2023-04-23T04:08:54.254Z,8.99
2023-04-23T04:11:21.149Z,9.05
2023-04-23T04:13:48.100Z,9.32
2023-04-23T04:16:15.078Z,9.55
2023-04-23T04:18:42.217Z,9.63
2023-04-23T04:21:09.092Z,9.88
2023-04-23T04:23:36.528Z,10.00
2023-04-23T04:26:03.449Z,10.23
2023-04-23T04:28:30.560Z,10.09
2023-04-23T04:30:57.732Z,10.17
2023-04-23T04:33:26.090Z,10.43
2023-04-23T04:35:53.101Z,10.80
2023-04-23T04:38:20.146Z,10.96
2023-04-23T04:40:47.054Z,11.23
2023-04-23T04:43:13.957Z,11.55
2023-04-23T04:45:40.807Z,11.82
2023-04-23T04:48:07.644Z,12.11
2023-04-23T04:50:35.231Z,12.27
2023-04-23T04:53:02.049Z,12.60
2023-04-23T04:55:28.878Z,12.72
2023-04-23T04:57:56.153Z,13.03
2023-04-23T05:00:28.044Z,13.41
2023-04-23T05:02:55.581Z,13.52
2023-04-23T05:05:24.081Z,13.76
2023-04-23T05:07:51.199Z,14.15
2023-04-23T05:10:18.121Z,14.22
2023-04-23T05:12:45.069Z,14.47
2023-04-23T05:15:13.536Z,14.79
2023-04-23T05:17:41.469Z,15.06
2023-04-23T05:20:12.623Z,15.31
2023-04-23T05:22:41.474Z,15.57
2023-04-23T05:25:10.108Z,15.90
2023-04-23T05:27:36.965Z,16.15
2023-04-23T05:30:06.028Z,16.24
2023-04-23T05:32:32.978Z,16.42
2023-04-23T05:35:00.720Z,17.01
2023-04-23T05:37:27.516Z,16.89
2023-04-23T05:39:54.644Z,17.15
2023-04-23T05:42:21.927Z,17.40
2023-04-23T05:44:48.760Z,17.50
2023-04-23T05:47:15.939Z,17.73
2023-04-23T05:49:42.880Z,17.88
2023-04-23T05:52:09.724Z,17.72
2023-04-23T05:54:36.523Z,18.04
2023-04-23T05:57:04.626Z,18.11
2023-04-23T05:59:32.214Z,18.26
2023-04-23T06:01:59.140Z,17.96
2023-04-23T06:04:26.373Z,18.00
2023-04-23T06:06:53.350Z,18.43
2023-04-23T06:09:20.244Z,18.18
2023-04-23T06:11:47.207Z,18.81
2023-04-23T06:14:14.138Z,18.59
2023-04-23T06:16:40.937Z,18.26
2023-04-23T06:19:07.867Z,19.10
2023-04-23T06:21:34.687Z,19.52
2023-04-23T06:24:01.537Z,20.12
2023-04-23T06:26:28.479Z,19.88
2023-04-23T06:28:55.361Z,20.54
2023-04-23T06:31:22.270Z,20.41
2023-04-23T06:33:49.145Z,20.39
2023-04-23T06:36:16.109Z,20.34
2023-04-23T06:38:44.728Z,20.74
2023-04-23T06:41:13.133Z,20.28
2023-04-23T06:43:39.971Z,21.17
2023-04-23T06:46:06.802Z,20.86
2023-04-23T06:48:33.905Z,21.65
2023-04-23T06:51:00.794Z,21.24
2023-04-23T06:53:27.611Z,21.07
2023-04-23T06:55:54.470Z,21.25
2023-04-23T06:58:23.492Z,21.22
2023-04-23T07:00:50.415Z,20.65
2023-04-23T07:03:17.690Z,20.92
2023-04-23T07:05:44.558Z,20.94
2023-04-23T07:08:11.371Z,21.02
2023-04-23T07:10:38.366Z,19.63
2023-04-23T07:13:05.175Z,20.40
2023-04-23T07:15:31.985Z,20.12
2023-04-23T07:17:59.021Z,19.28
2023-04-23T07:20:26.347Z,20.42
2023-04-23T07:22:53.206Z,20.14
2023-04-23T07:25:21.610Z,20.55
2023-04-23T07:27:48.614Z,20.52
2023-04-23T07:30:16.361Z,20.13
2023-04-23T07:32:43.766Z,20.06
2023-04-23T07:35:11.559Z,20.70
2023-04-23T07:37:38.562Z,20.16
2023-04-23T07:40:06.248Z,19.80
2023-04-23T07:42:33.024Z,20.65
2023-04-23T07:45:00.105Z,20.78
2023-04-23T07:47:27.313Z,20.54
2023-04-23T07:49:54.192Z,20.32
2023-04-23T07:52:21.169Z,20.28
2023-04-23T07:54:48.009Z,20.82
2023-04-23T07:57:14.806Z,20.85
2023-04-23T07:59:42.054Z,20.90
2023-04-23T08:02:09.427Z,20.88
2023-04-23T08:04:36.416Z,21.01
2023-04-23T08:07:03.873Z,21.10
2023-04-23T08:09:30.716Z,20.13
2023-04-23T08:11:57.915Z,20.39
2023-04-23T08:14:24.799Z,20.18
2023-04-23T08:16:51.687Z,20.30
2023-04-23T08:19:18.693Z,20.29
2023-04-23T08:21:45.594Z,19.80
2023-04-23T08:24:12.518Z,21.24
2023-04-23T08:26:39.310Z,21.38
2023-04-23T08:29:06.292Z,21.14
2023-04-23T08:31:33.420Z,20.80
2023-04-23T08:34:00.368Z,21.07
2023-04-23T08:36:27.788Z,21.04
2023-04-23T08:38:54.900Z,21.22
2023-04-23T08:41:27.493Z,20.94
2023-04-23T08:44:03.267Z,20.72
2023-04-23T08:46:33.048Z,21.23
2023-04-23T08:49:03.355Z,21.12
2023-04-23T08:51:32.697Z,20.85
2023-04-23T08:54:05.128Z,22.06
2023-04-23T08:56:32.874Z,21.92
2023-04-23T08:59:00.028Z,21.83
2023-04-23T09:01:26.923Z,21.97
2023-04-23T09:03:54.208Z,22.55
2023-04-23T09:06:22.108Z,22.95
2023-04-23T09:08:49.189Z,22.88
2023-04-23T09:11:17.302Z,23.19
2023-04-23T09:13:44.202Z,23.06
2023-04-23T09:16:11.460Z,23.30
2023-04-23T09:18:38.933Z,23.37
2023-04-23T09:21:07.350Z,23.69
2023-04-23T09:23:34.902Z,23.16
2023-04-23T09:26:06.676Z,24.16
2023-04-23T09:28:38.124Z,23.60
2023-04-23T09:31:06.454Z,23.64
2023-04-23T09:33:35.426Z,23.33
2023-04-23T09:36:15.192Z,22.42
2023-04-23T09:38:42.187Z,21.93
2023-04-23T09:41:26.100Z,22.90
2023-04-23T09:43:57.201Z,22.81
2023-04-23T09:46:37.507Z,22.77
2023-04-23T09:49:07.966Z,22.83
2023-04-23T09:51:42.322Z,22.83
2023-04-23T09:54:27.830Z,22.68
2023-04-23T09:56:59.970Z,23.47
2023-04-23T09:59:45.959Z,22.96
2023-04-23T10:02:13.877Z,22.65
2023-04-23T10:04:42.212Z,22.94
2023-04-23T10:09:43.695Z,22.90
2023-04-23T10:12:27.846Z,22.64
2023-04-23T10:14:59.879Z,22.61
2023-04-23T10:17:27.186Z,22.84
2023-04-23T10:19:55.834Z,23.79
2023-04-23T10:22:24.345Z,23.96
2023-04-23T10:24:56.503Z,23.57
2023-04-23T10:27:36.722Z,23.34
2023-04-23T10:30:13.582Z,24.02
2023-04-23T10:32:41.240Z,24.35
2023-04-23T10:35:09.594Z,24.01
2023-04-23T10:37:37.768Z,23.51
2023-04-23T10:40:12.625Z,23.80
2023-04-23T10:42:40.940Z,24.08
2023-04-23T10:47:49.147Z,22.96
2023-04-23T10:50:58.345Z,23.37
2023-04-23T10:53:32.043Z,24.06
2023-04-23T10:56:10.307Z,23.90
2023-04-23T10:58:53.268Z,22.95
2023-04-23T11:01:22.318Z,22.67
2023-04-23T11:03:49.397Z,22.84
2023-04-23T11:06:40.198Z,22.47
2023-04-23T11:09:34.991Z,23.31
2023-04-23T11:12:02.961Z,23.82
2023-04-23T11:14:46.176Z,24.19
2023-04-23T11:17:14.450Z,24.03
2023-04-23T11:19:42.454Z,24.18
2023-04-23T11:22:19.549Z,24.82
2023-04-23T11:24:49.491Z,25.32
2023-04-23T11:27:18.460Z,23.64
2023-04-23T11:29:46.570Z,22.83
2023-04-23T11:32:17.248Z,23.26
2023-04-23T11:34:46.196Z,23.90
2023-04-23T11:37:15.584Z,24.49
2023-04-23T11:39:44.813Z,24.38
2023-04-23T11:42:15.553Z,23.85
2023-04-23T11:44:46.344Z,23.60
2023-04-23T11:47:14.667Z,22.92
2023-04-23T11:49:43.591Z,22.35
2023-04-23T11:52:11.502Z,22.80
2023-04-23T11:54:41.640Z,22.82
2023-04-23T11:57:08.772Z,23.14
2023-04-23T11:59:35.839Z,23.51
2023-04-23T12:02:02.735Z,24.06
2023-04-23T12:04:31.903Z,24.33
2023-04-23T12:06:59.576Z,24.64
2023-04-23T12:09:28.516Z,24.19
2023-04-23T12:11:58.656Z,24.34
2023-04-23T12:14:30.936Z,24.82
2023-04-23T12:17:08.769Z,25.15
2023-04-23T12:19:35.818Z,24.97
2023-04-23T12:22:04.007Z,25.29
2023-04-23T12:24:32.471Z,24.70
2023-04-23T12:27:02.956Z,24.67
2023-04-23T12:29:31.542Z,24.45
2023-04-23T12:32:00.514Z,24.10
2023-04-23T12:34:27.368Z,23.62
2023-04-23T12:36:57.808Z,23.91
2023-04-23T12:39:27.477Z,24.48
2023-04-23T12:41:56.771Z,24.66
2023-04-23T12:44:23.842Z,24.89
2023-04-23T12:47:03.663Z,25.27
2023-04-23T12:49:31.714Z,25.17
2023-04-23T12:52:01.650Z,25.40
2023-04-23T12:54:37.799Z,25.59
2023-04-23T12:57:07.095Z,25.60
2023-04-23T12:59:34.708Z,24.86
2023-04-23T13:02:03.079Z,24.80
2023-04-23T13:04:31.721Z,24.08
2023-04-23T13:06:58.597Z,24.18
2023-04-23T13:09:28.198Z,24.23
2023-04-23T13:11:55.716Z,24.73
2023-04-23T13:14:22.567Z,25.04
2023-04-23T13:16:49.806Z,25.41
2023-04-23T13:19:17.590Z,25.58
2023-04-23T13:21:45.204Z,25.16
2023-04-23T13:24:12.245Z,25.14
2023-04-23T13:26:39.160Z,25.06
2023-04-23T13:29:06.247Z,24.73
2023-04-23T13:31:33.337Z,24.57
2023-04-23T13:34:01.640Z,24.74
2023-04-23T13:36:28.681Z,24.56
2023-04-23T13:38:55.552Z,24.27
2023-04-23T13:41:22.413Z,24.13
2023-04-23T13:43:49.222Z,24.11
2023-04-23T13:46:16.869Z,23.80
2023-04-23T13:48:43.758Z,23.72
2023-04-23T13:51:21.790Z,23.80
2023-04-23T13:53:53.441Z,24.09
2023-04-23T13:56:20.351Z,24.00
2023-04-23T13:58:48.987Z,24.27
2023-04-23T14:01:16.312Z,23.90
2023-04-23T14:03:43.198Z,24.44
2023-04-23T14:06:10.056Z,24.17
2023-04-23T14:08:37.446Z,23.67
2023-04-23T14:11:04.829Z,23.89
2023-04-23T14:13:32.936Z,23.94
2023-04-23T14:16:02.018Z,23.94
2023-04-23T14:18:30.488Z,24.22
2023-04-23T14:20:57.470Z,24.36
2023-04-23T14:23:24.270Z,24.55
2023-04-23T14:25:59.718Z,23.96
2023-04-23T14:28:40.022Z,23.91
2023-04-23T14:31:07.651Z,23.75
2023-04-23T14:33:34.546Z,24.15
2023-04-23T14:36:01.451Z,24.36
2023-04-23T14:38:28.299Z,24.47
2023-04-23T14:40:56.003Z,24.34
2023-04-23T14:43:22.942Z,24.42
2023-04-23T14:45:51.137Z,24.52
2023-04-23T14:48:18.070Z,24.55
2023-04-23T14:50:45.009Z,24.55
2023-04-23T14:53:11.889Z,24.55
2023-04-23T14:55:40.138Z,24.42
2023-04-23T14:58:07.086Z,24.39
2023-04-23T15:00:34.120Z,24.38
2023-04-23T15:03:02.857Z,24.37
2023-04-23T15:05:29.997Z,24.36
2023-04-23T15:07:56.842Z,24.36
2023-04-23T15:10:23.860Z,24.40
2023-04-23T15:12:53.535Z,24.41
2023-04-23T15:15:36.851Z,24.20
2023-04-23T15:18:08.050Z,24.13
2023-04-23T15:20:34.870Z,24.19
2023-04-23T15:23:01.698Z,24.11
2023-04-23T15:25:30.100Z,24.12
2023-04-23T15:27:59.799Z,24.06
2023-04-23T15:30:27.483Z,24.05
2023-04-23T15:32:57.810Z,23.89
2023-04-23T15:35:25.852Z,23.86
2023-04-23T15:37:53.943Z,23.52
2023-04-23T15:40:20.852Z,23.44
2023-04-23T15:42:50.121Z,23.23
2023-04-23T15:45:17.276Z,22.97
2023-04-23T15:47:44.303Z,22.90
2023-04-23T15:50:11.553Z,22.95
2023-04-23T15:52:38.489Z,22.94
2023-04-23T15:55:06.570Z,22.94
2023-04-23T15:57:33.413Z,22.90
2023-04-23T16:00:00.343Z,22.84
2023-04-23T16:02:27.622Z,22.74
2023-04-23T16:04:54.835Z,22.69
2023-04-23T16:07:21.712Z,22.58
2023-04-23T16:09:48.676Z,22.59
2023-04-23T16:12:15.741Z,22.53
2023-04-23T16:14:43.028Z,22.50
2023-04-23T16:17:09.915Z,22.46
2023-04-23T16:19:37.494Z,22.36
2023-04-23T16:22:04.369Z,22.34
2023-04-23T16:24:31.408Z,22.14
2023-04-23T16:26:58.394Z,22.00
2023-04-23T16:29:25.442Z,21.69
2023-04-23T16:31:52.364Z,21.77
2023-04-23T16:34:19.259Z,21.57
2023-04-23T16:36:46.834Z,21.48
2023-04-23T16:39:13.821Z,21.44
2023-04-23T16:41:40.720Z,21.43
2023-04-23T16:44:07.570Z,21.40
2023-04-23T16:46:34.630Z,21.30
2023-04-23T16:49:01.590Z,21.25
2023-04-23T16:51:29.819Z,21.18
2023-04-23T16:53:57.241Z,21.02
2023-04-23T16:56:24.382Z,20.90
2023-04-23T16:58:51.247Z,20.90
2023-04-23T17:01:18.249Z,20.85
2023-04-23T17:03:46.145Z,20.76
2023-04-23T17:06:13.572Z,20.64
2023-04-23T17:08:40.669Z,20.59
2023-04-23T17:11:07.938Z,20.55
2023-04-23T17:13:35.140Z,20.49
2023-04-23T17:16:03.044Z,20.39
2023-04-23T17:18:30.142Z,20.24
2023-04-23T17:20:56.999Z,20.25
2023-04-23T17:23:23.982Z,20.19
2023-04-23T17:25:50.900Z,20.16
2023-04-23T17:28:20.287Z,20.06
2023-04-23T17:30:50.604Z,20.00
2023-04-23T17:33:18.206Z,19.83
2023-04-23T17:35:45.249Z,19.79
2023-04-23T17:38:12.836Z,19.72
2023-04-23T17:40:39.841Z,19.71
2023-04-23T17:43:08.208Z,19.60
2023-04-23T17:45:35.151Z,19.57
2023-04-23T17:48:02.220Z,19.45
2023-04-23T17:50:30.092Z,19.29
2023-04-23T17:52:57.573Z,19.12
2023-04-23T17:55:24.858Z,19.01
2023-04-23T17:57:51.866Z,18.87
2023-04-23T18:00:19.659Z,18.67
2023-04-23T18:02:46.787Z,18.55
2023-04-23T18:05:15.880Z,18.44
2023-04-23T18:07:43.880Z,18.37
2023-04-23T18:10:14.481Z,18.29
2023-04-23T18:12:41.469Z,18.27
2023-04-23T18:15:11.312Z,18.22
2023-04-23T18:17:38.764Z,18.13
2023-04-23T18:20:06.798Z,18.10
2023-04-23T18:22:33.958Z,18.03
2023-04-23T18:25:02.264Z,17.96
2023-04-23T18:27:29.225Z,17.81
2023-04-23T18:29:57.963Z,17.81
2023-04-23T18:32:34.072Z,17.72
2023-04-23T18:35:02.563Z,17.64
2023-04-23T18:37:42.708Z,17.53
2023-04-23T18:40:11.006Z,17.40
2023-04-23T18:42:37.946Z,17.25
2023-04-23T18:45:05.149Z,17.14
2023-04-23T18:47:37.179Z,17.13
2023-04-23T18:50:09.699Z,16.93
2023-04-23T18:52:36.920Z,16.88
2023-04-23T18:55:03.919Z,16.76
2023-04-23T18:57:30.729Z,16.77
2023-04-23T18:59:57.529Z,16.82
2023-04-23T19:02:34.570Z,16.71
2023-04-23T19:05:02.840Z,16.64
2023-04-23T19:07:29.804Z,16.62
2023-04-23T19:09:56.615Z,16.61
2023-04-23T19:12:23.461Z,16.51
2023-04-23T19:14:50.385Z,16.50
2023-04-23T19:17:18.770Z,16.41
2023-04-23T19:19:46.305Z,16.38
2023-04-23T19:22:13.213Z,16.29
2023-04-23T19:24:40.023Z,16.27
2023-04-23T19:27:07.330Z,16.17
2023-04-23T19:29:34.274Z,16.17
2023-04-23T19:32:01.415Z,16.09
2023-04-23T19:34:28.217Z,15.96
2023-04-23T19:36:55.150Z,15.88
2023-04-23T19:39:23.806Z,15.90
2023-04-23T19:41:50.849Z,15.83
2023-04-23T19:44:17.738Z,15.79
2023-04-23T19:46:44.600Z,15.78
2023-04-23T19:49:11.456Z,15.73
2023-04-23T19:51:39.728Z,15.77
2023-04-23T19:54:06.626Z,15.71
2023-04-23T19:56:33.443Z,15.71
2023-04-23T19:59:00.619Z,15.70
2023-04-23T20:01:30.089Z,15.81
2023-04-23T20:03:57.358Z,15.74
2023-04-23T20:06:24.342Z,15.85
2023-04-23T20:09:09.737Z,15.88
2023-04-23T20:11:36.731Z,15.88
2023-04-23T20:14:04.126Z,15.85
2023-04-23T20:16:31.086Z,15.81
2023-04-23T20:18:58.183Z,15.77
2023-04-23T20:21:25.559Z,15.74
2023-04-23T20:23:52.418Z,15.73
2023-04-23T20:26:20.289Z,15.67
2023-04-23T20:28:48.458Z,15.66
2023-04-23T20:31:15.707Z,15.67
2023-04-23T20:33:42.660Z,15.56
2023-04-23T20:36:11.060Z,15.47
2023-04-23T20:38:39.163Z,15.40
2023-04-23T20:41:06.845Z,15.36
2023-04-23T20:43:36.097Z,15.36
2023-04-23T20:46:03.234Z,15.39
2023-04-23T20:48:30.627Z,15.63
2023-04-23T20:50:58.084Z,15.80
2023-04-23T20:53:26.735Z,15.88
2023-04-23T20:55:53.635Z,15.93
2023-04-23T20:58:20.500Z,15.88
2023-04-23T21:00:48.034Z,15.91
2023-04-23T21:03:15.102Z,15.89
2023-04-23T21:05:44.457Z,15.75
2023-04-23T21:08:11.825Z,15.74
2023-04-23T21:10:39.653Z,15.55
2023-04-23T21:13:12.303Z,15.58
2023-04-23T21:15:39.801Z,15.52
2023-04-23T21:18:08.377Z,15.48
2023-04-23T21:20:36.430Z,15.35
2023-04-23T21:23:03.388Z,15.06
2023-04-23T21:25:32.589Z,14.86
2023-04-23T21:27:59.653Z,14.88
2023-04-23T21:30:48.187Z,14.86
2023-04-23T21:33:15.822Z,14.85
2023-04-23T21:35:43.750Z,14.75
2023-04-23T21:38:11.600Z,14.72
2023-04-23T21:40:39.332Z,14.63
2023-04-23T21:43:07.436Z,14.56
2023-04-23T21:45:34.420Z,14.61
2023-04-23T21:48:01.713Z,14.48
2023-04-23T21:50:30.098Z,14.29
2023-04-23T21:52:58.726Z,14.28
2023-04-23T21:55:26.910Z,14.24
2023-04-23T21:57:56.405Z,14.31
2023-04-23T22:00:25.508Z,14.41
2023-04-23T22:02:55.248Z,14.36
2023-04-23T22:05:23.827Z,14.21
2023-04-23T22:07:55.504Z,14.25
2023-04-23T22:10:23.216Z,13.97
2023-04-23T22:12:50.956Z,14.08
2023-04-23T22:15:19.481Z,14.10
2023-04-23T22:17:50.529Z,14.11
2023-04-23T22:20:19.221Z,14.09
2023-04-23T22:22:46.263Z,14.15
2023-04-23T22:25:13.287Z,14.20
2023-04-23T22:27:41.228Z,14.13
2023-04-23T22:30:10.173Z,13.99
2023-04-23T22:32:38.485Z,13.91
2023-04-23T22:35:06.974Z,13.85
2023-04-23T22:37:34.635Z,13.73
2023-04-23T22:40:02.157Z,13.81
2023-04-23T22:42:29.015Z,13.82
2023-04-23T22:44:55.864Z,13.85
2023-04-23T22:47:23.016Z,13.92
2023-04-23T22:49:50.082Z,13.83
2023-04-23T22:52:17.366Z,13.89
2023-04-23T22:54:44.417Z,13.90
2023-04-23T22:57:11.953Z,13.90
2023-04-23T22:59:42.134Z,13.99
2023-04-23T23:02:09.312Z,13.92
2023-04-23T23:04:38.593Z,13.92
2023-04-23T23:07:06.821Z,13.99
2023-04-23T23:09:33.717Z,13.97
2023-04-23T23:12:02.629Z,13.94
2023-04-23T23:14:29.975Z,14.01
2023-04-23T23:16:57.717Z,14.06
2023-04-23T23:19:27.204Z,14.16
2023-04-23T23:21:54.380Z,14.15
2023-04-23T23:24:22.952Z,14.16
2023-04-23T23:26:50.620Z,14.29
2023-04-23T23:29:17.659Z,14.16
2023-04-23T23:31:44.780Z,14.29
2023-04-23T23:34:12.489Z,14.28
2023-04-23T23:36:39.528Z,14.18
2023-04-23T23:39:06.975Z,14.34
2023-04-23T23:41:33.961Z,14.33
2023-04-23T23:44:01.130Z,14.35
2023-04-23T23:46:28.199Z,14.32
2023-04-23T23:48:55.584Z,14.16
2023-04-23T23:51:22.495Z,14.26
2023-04-23T23:53:49.401Z,14.00
2023-04-23T23:56:16.322Z,13.83
2023-04-23T23:58:43.235Z,13.79
